Time;durP1;ratioP1;P1;durP2;ratioP2;P2;SDS_P1;SDS_P2;PMS_P1;PMS_P2;Temp;Humidity;BMP_temperature;BMP_pressure;BME280_temperature;BME280_humidity;BME280_pressure;Samples;Min_cycle;Max_cycle;Signal;HPM_P1;HPM_P2
2022/02/02 00:00:41;;;;;;;3.10;2.85;;;5.80;99.90;;;;;;5068484;28;20205;-75
2022/02/02 00:03:11;;;;;;;4.70;3.03;;;5.70;99.90;;;;;;5068290;28;20200;-75
2022/02/02 00:05:49;;;;;;;4.57;4.03;;;5.70;99.90;;;;;;5069161;28;20514;-75
2022/02/02 00:08:22;;;;;;;4.10;3.15;;;5.70;99.90;;;;;;5068949;28;20244;-75
2022/02/02 00:11:22;;;;;;;5.75;2.85;;;5.70;99.90;;;;;;5068579;28;20200;-75
2022/02/02 00:13:56;;;;;;;4.38;2.72;;;5.60;99.90;;;;;;5068222;28;20243;-75
2022/02/02 00:16:46;;;;;;;4.45;3.15;;;5.60;99.90;;;;;;5068287;28;20783;-75
2022/02/02 00:19:20;;;;;;;3.13;2.83;;;5.60;99.90;;;;;;5068071;28;20573;-75
2022/02/02 00:21:51;;;;;;;3.30;2.40;;;5.60;99.90;;;;;;5068355;28;20200;-75
2022/02/02 00:24:26;;;;;;;4.30;3.10;;;5.70;99.90;;;;;;5068155;28;20243;-75
2022/02/02 00:26:56;;;;;;;2.65;2.10;;;5.60;99.90;;;;;;5068548;28;20203;-75
2022/02/02 00:29:29;;;;;;;2.92;1.75;;;5.70;99.90;;;;;;5068253;28;20285;-75
2022/02/02 00:32:05;;;;;;;2.53;1.80;;;5.70;99.90;;;;;;5068732;28;20207;-75
2022/02/02 00:34:32;;;;;;;2.63;1.80;;;5.60;99.90;;;;;;5068171;28;20203;-75
2022/02/02 00:37:00;;;;;;;1.70;1.60;;;5.60;99.90;;;;;;5068306;28;20204;-75
2022/02/02 00:39:29;;;;;;;2.78;1.92;;;5.60;99.90;;;;;;5068875;28;20553;-75
2022/02/02 00:41:57;;;;;;;3.10;2.03;;;5.60;99.90;;;;;;5140080;22;20598;-73
2022/02/02 00:44:24;;;;;;;1.60;1.50;;;5.60;99.90;;;;;;5067285;28;20220;-73
2022/02/02 00:46:52;;;;;;;3.15;2.20;;;5.60;99.90;;;;;;5069152;28;20220;-73
2022/02/02 00:49:20;;;;;;;3.42;1.52;;;5.60;99.90;;;;;;5068919;28;20691;-73
2022/02/02 00:51:49;;;;;;;1.90;1.40;;;5.60;99.90;;;;;;5068624;28;20208;-73
2022/02/02 00:54:21;;;;;;;3.38;1.30;;;5.60;99.90;;;;;;5069646;28;20200;-73
2022/02/02 00:56:48;;;;;;;6.55;2.10;;;5.60;99.90;;;;;;5069829;28;20259;-73
2022/02/02 00:59:15;;;;;;;3.30;1.40;;;5.60;99.90;;;;;;5070049;28;20201;-73
2022/02/02 01:01:42;;;;;;;3.35;1.83;;;5.60;99.90;;;;;;5070158;28;20204;-72
2022/02/02 01:04:10;;;;;;;2.92;2.22;;;5.60;99.90;;;;;;5068291;28;20694;-70
2022/02/02 01:06:42;;;;;;;5.50;1.83;;;5.60;99.90;;;;;;5068605;28;20578;-73
2022/02/02 01:09:22;;;;;;;3.90;2.08;;;5.60;99.90;;;;;;5069743;28;20834;-73
2022/02/02 01:12:17;;;;;;;3.95;2.08;;;5.60;99.90;;;;;;5067978;28;20309;-72
2022/02/02 01:15:39;;;;;;;3.03;2.13;;;5.60;99.90;;;;;;5068416;28;20287;-72
2022/02/02 01:18:16;;;;;;;2.60;1.80;;;5.60;99.90;;;;;;5067516;28;20227;-72
2022/02/02 01:20:53;;;;;;;2.65;1.90;;;5.70;99.90;;;;;;5068162;28;20224;-72
2022/02/02 01:28:52;;;;;;;2.95;2.38;;;5.70;99.90;;;;;;5046913;28;20216;-72
2022/02/02 01:31:18;;;;;;;3.72;1.75;;;5.70;99.90;;;;;;5067481;28;20239;-72
2022/02/02 01:33:47;;;;;;;2.10;1.83;;;5.70;99.90;;;;;;5067149;28;20208;-73
2022/02/02 01:36:14;;;;;;;4.22;1.95;;;5.70;99.90;;;;;;5067295;28;20223;-72
2022/02/02 01:38:44;;;;;;;4.10;2.15;;;5.80;99.90;;;;;;5066980;28;20196;-72
2022/02/02 01:41:18;;;;;;;4.13;2.85;;;5.80;99.90;;;;;;5066297;28;20812;-73
2022/02/02 01:43:52;;;;;;;6.47;2.92;;;5.80;99.90;;;;;;5069583;28;20200;-73
2022/02/02 01:46:20;;;;;;;2.75;1.80;;;5.80;99.90;;;;;;5069915;28;20220;-72
2022/02/02 01:48:54;;;;;;;5.50;1.70;;;5.80;99.90;;;;;;5070806;28;20223;-72
2022/02/02 01:51:45;;;;;;;2.55;1.63;;;5.80;99.90;;;;;;5074113;28;20200;-72
2022/02/02 01:54:31;;;;;;;3.97;1.70;;;5.80;99.90;;;;;;5073473;28;20255;-71
2022/02/02 01:57:02;;;;;;;2.05;1.52;;;5.80;99.90;;;;;;5074552;28;20254;-71
2022/02/02 01:59:39;;;;;;;5.82;1.77;;;5.90;99.90;;;;;;5073883;28;20227;-72
2022/02/02 02:02:06;;;;;;;2.45;2.08;;;5.90;99.90;;;;;;5073913;28;20598;-72
2022/02/02 02:04:33;;;;;;;3.20;1.75;;;5.90;99.90;;;;;;5073811;28;20621;-71
2022/02/02 02:07:00;;;;;;;2.13;1.63;;;6.00;99.90;;;;;;5073867;28;20609;-72
2022/02/02 02:09:29;;;;;;;3.00;1.88;;;6.10;99.90;;;;;;5073772;28;20267;-72
2022/02/02 02:11:57;;;;;;;3.28;2.25;;;6.10;99.90;;;;;;5073859;28;20211;-72
2022/02/02 02:14:42;;;;;;;3.38;1.98;;;6.10;99.90;;;;;;5073365;28;20203;-72
2022/02/02 02:17:09;;;;;;;5.20;2.40;;;6.10;99.90;;;;;;5073596;28;20246;-72
2022/02/02 02:19:38;;;;;;;4.35;2.20;;;6.10;99.90;;;;;;5073883;28;20208;-72
2022/02/02 02:22:09;;;;;;;5.88;2.65;;;6.10;99.90;;;;;;5073406;28;20204;-71
2022/02/02 02:24:39;;;;;;;5.00;2.53;;;6.10;99.90;;;;;;5073594;28;20551;-72
2022/02/02 02:27:08;;;;;;;4.00;3.05;;;6.10;99.90;;;;;;5073919;28;20228;-72
2022/02/02 02:29:50;;;;;;;3.25;2.95;;;6.10;99.90;;;;;;5073557;28;20273;-72
2022/02/02 02:32:31;;;;;;;5.75;2.92;;;6.20;99.90;;;;;;5072915;28;20667;-72
2022/02/02 02:35:19;;;;;;;7.10;3.30;;;6.20;99.90;;;;;;5073768;28;20256;-72
2022/02/02 02:38:11;;;;;;;7.25;3.20;;;6.20;99.90;;;;;;5073822;28;20664;-72
2022/02/02 02:57:05;;;;;;;9.82;4.13;;;6.40;99.90;;;;;;5073322;28;20234;-72
2022/02/02 02:59:38;;;;;;;12.77;4.03;;;6.40;99.90;;;;;;5072828;28;20201;-71
2022/02/02 03:29:57;;;;;;;10.43;4.13;;;6.40;99.90;;;;;;5010953;28;20288;-72
2022/02/02 03:35:20;;;;;;;5.80;2.92;;;6.40;99.90;;;;;;5041313;28;20573;-72
2022/02/02 03:51:43;;;;;;;10.48;3.15;;;6.30;99.90;;;;;;5072565;28;20674;-72
2022/02/02 03:54:30;;;;;;;10.52;2.85;;;6.30;99.90;;;;;;5071718;28;20207;-72
2022/02/02 03:57:21;;;;;;;9.40;2.80;;;6.40;99.90;;;;;;5072455;28;20269;-72
2022/02/02 04:00:11;;;;;;;10.02;4.07;;;6.30;99.90;;;;;;5072507;28;20211;-72
2022/02/02 04:02:49;;;;;;;9.88;3.28;;;6.30;99.90;;;;;;5071346;28;20200;-72
2022/02/02 04:05:27;;;;;;;7.15;3.00;;;6.30;99.90;;;;;;5071909;28;20307;-71
2022/02/02 04:08:05;;;;;;;8.68;4.78;;;6.30;99.90;;;;;;5072104;28;20633;-73
2022/02/02 04:10:32;;;;;;;7.45;3.35;;;6.30;99.90;;;;;;5071947;28;20888;-72
2022/02/02 04:13:09;;;;;;;9.38;3.75;;;6.30;99.90;;;;;;5070353;28;20204;-72
2022/02/02 04:37:56;;;;;;;7.50;3.03;;;6.40;99.90;;;;;;5050250;28;20195;-75
2022/02/02 04:51:31;;;;;;;7.85;2.80;;;6.20;99.90;;;;;;5060937;28;20203;-74
2022/02/02 04:54:18;;;;;;;10.48;3.63;;;6.10;99.90;;;;;;5060504;28;20581;-74
2022/02/02 04:57:17;;;;;;;8.80;3.20;;;6.10;99.90;;;;;;5060743;28;20212;-74
2022/02/02 04:59:49;;;;;;;6.45;2.80;;;6.20;99.90;;;;;;5065352;28;20765;-74
2022/02/02 05:03:10;;;;;;;8.98;3.08;;;6.10;99.90;;;;;;5055843;28;20193;-75
2022/02/02 05:05:40;;;;;;;7.93;3.55;;;6.10;99.90;;;;;;5058573;28;20216;-76
2022/02/02 05:08:16;;;;;;;10.57;3.25;;;6.10;99.90;;;;;;5060910;28;20196;-76
2022/02/02 05:10:56;;;;;;;6.38;3.05;;;6.10;99.90;;;;;;5060633;28;20226;-76
2022/02/02 05:16:42;;;;;;;14.40;3.13;;;6.00;99.90;;;;;;5060258;28;20593;-75
2022/02/02 05:22:38;;;;;;;7.07;3.20;;;6.00;99.90;;;;;;5040276;28;20196;-74
2022/02/02 05:49:59;;;;;;;6.82;3.08;;;6.00;99.90;;;;;;5070315;28;20254;-76
2022/02/02 05:52:26;;;;;;;8.27;4.00;;;6.00;99.90;;;;;;5069948;28;20227;-76
2022/02/02 05:54:52;;;;;;;7.78;3.63;;;6.00;99.90;;;;;;5070196;28;20306;-76
2022/02/02 05:57:21;;;;;;;5.55;3.08;;;6.00;99.90;;;;;;5070140;28;20215;-76
2022/02/02 05:59:50;;;;;;;13.55;4.05;;;6.10;99.90;;;;;;5070503;28;20204;-77
2022/02/02 06:02:20;;;;;;;7.88;2.92;;;6.20;99.90;;;;;;5069509;28;20208;-76
2022/02/02 06:04:48;;;;;;;8.70;2.97;;;6.20;99.90;;;;;;5070342;28;20207;-76
2022/02/02 06:07:16;;;;;;;9.63;3.10;;;6.20;99.90;;;;;;5070128;28;20262;-76
2022/02/02 06:09:46;;;;;;;7.45;3.17;;;6.20;99.90;;;;;;5070273;28;20669;-77
2022/02/02 06:12:17;;;;;;;8.32;2.88;;;6.10;99.90;;;;;;5069505;28;20206;-76
2022/02/02 06:14:45;;;;;;;4.68;2.88;;;6.20;99.90;;;;;;5070351;28;20205;-76
2022/02/02 06:17:12;;;;;;;8.88;3.00;;;6.20;99.90;;;;;;5069992;28;20595;-76
2022/02/02 06:19:39;;;;;;;5.05;3.30;;;6.20;99.90;;;;;;5070284;28;20469;-75
2022/02/02 06:22:11;;;;;;;7.80;3.65;;;6.30;99.90;;;;;;5069660;28;20583;-76
2022/02/02 06:24:46;;;;;;;9.18;3.13;;;6.40;99.90;;;;;;5070104;28;20605;-76
2022/02/02 06:27:20;;;;;;;8.35;3.20;;;6.30;99.90;;;;;;5070127;28;20247;-76
2022/02/02 06:29:53;;;;;;;6.68;2.97;;;6.30;99.90;;;;;;5069958;28;20216;-75
2022/02/02 06:32:24;;;;;;;3.97;2.38;;;6.30;99.90;;;;;;5069393;28;20204;-76
2022/02/02 06:34:58;;;;;;;6.97;3.00;;;6.30;99.90;;;;;;5070647;28;20273;-79
2022/02/02 06:37:26;;;;;;;8.88;3.50;;;6.30;99.90;;;;;;5073676;28;20204;-76
2022/02/02 06:39:54;;;;;;;8.10;2.90;;;6.40;99.90;;;;;;5073602;28;20192;-78
2022/02/02 06:42:22;;;;;;;5.68;2.50;;;6.40;99.90;;;;;;5113583;22;20216;-95
2022/02/02 06:44:51;;;;;;;8.45;3.70;;;6.40;99.90;;;;;;5096195;22;20331;-73
2022/02/02 06:47:18;;;;;;;9.85;2.95;;;6.40;99.90;;;;;;5073211;28;20193;-73
2022/02/02 06:49:47;;;;;;;6.65;3.85;;;6.40;99.90;;;;;;5073670;28;20586;-73
2022/02/02 06:52:20;;;;;;;6.78;2.80;;;6.30;99.90;;;;;;5072916;28;20304;-73
2022/02/02 06:54:55;;;;;;;5.38;2.83;;;6.30;99.90;;;;;;5073901;28;20204;-73
2022/02/02 06:57:36;;;;;;;11.68;3.17;;;6.40;99.90;;;;;;5073043;28;20200;-73
2022/02/02 07:00:14;;;;;;;7.20;3.08;;;6.30;99.90;;;;;;5073535;28;20242;-73
2022/02/02 07:02:53;;;;;;;14.30;4.07;;;6.30;99.90;;;;;;5072523;28;20208;-73
2022/02/02 07:05:34;;;;;;;12.85;3.45;;;6.30;99.90;;;;;;5073106;28;20725;-73
2022/02/02 07:08:25;;;;;;;7.00;3.25;;;6.30;99.90;;;;;;5073312;28;20299;-72
2022/02/02 07:11:16;;;;;;;11.40;3.45;;;6.30;99.90;;;;;;5073310;28;20293;-72
2022/02/02 07:13:57;;;;;;;8.40;3.45;;;6.30;99.90;;;;;;5072457;28;20234;-72
2022/02/02 07:16:38;;;;;;;8.00;3.80;;;6.40;99.90;;;;;;5072981;28;20654;-72
2022/02/02 07:19:23;;;;;;;10.00;3.00;;;6.40;99.90;;;;;;5073073;28;20196;-72
2022/02/02 07:24:54;;;;;;;8.23;3.50;;;6.40;99.90;;;;;;5069784;28;20206;-72
2022/02/02 07:27:37;;;;;;;5.35;3.03;;;6.40;99.90;;;;;;5072969;28;20201;-72
2022/02/02 07:30:14;;;;;;;7.45;3.15;;;6.50;99.90;;;;;;5072847;28;20216;-72
2022/02/02 07:32:48;;;;;;;7.07;2.95;;;6.50;99.90;;;;;;5072295;28;20226;-72
2022/02/02 07:35:21;;;;;;;10.70;3.15;;;6.60;99.90;;;;;;5072705;28;20243;-72
2022/02/02 07:37:53;;;;;;;10.80;3.80;;;6.50;99.90;;;;;;5072987;28;20201;-73
2022/02/02 07:40:21;;;;;;;9.60;3.70;;;6.50;99.90;;;;;;5072760;28;20204;-73
2022/02/02 07:42:53;;;;;;;8.02;3.47;;;6.50;99.90;;;;;;5072226;28;20201;-73
2022/02/02 07:45:22;;;;;;;11.15;3.45;;;6.50;99.90;;;;;;5072462;28;20807;-73
2022/02/02 07:47:58;;;;;;;6.75;3.35;;;6.50;99.90;;;;;;5071639;28;20250;-73
2022/02/02 07:50:28;;;;;;;11.73;3.30;;;6.50;99.90;;;;;;5072587;28;20727;-73
2022/02/02 07:53:02;;;;;;;8.05;2.72;;;6.50;99.90;;;;;;5071929;28;20211;-73
2022/02/02 07:55:30;;;;;;;6.38;3.75;;;6.60;99.90;;;;;;5072312;28;20605;-74
2022/02/02 07:57:58;;;;;;;10.02;4.03;;;6.50;99.90;;;;;;5072815;28;20199;-74
2022/02/02 08:00:26;;;;;;;14.48;3.60;;;6.60;99.90;;;;;;5077202;28;20200;-74
2022/02/02 08:03:04;;;;;;;7.22;3.53;;;6.60;99.90;;;;;;5077600;28;20232;-74
2022/02/02 08:05:34;;;;;;;14.18;4.72;;;6.60;99.90;;;;;;5071250;28;20237;-74
2022/02/02 08:08:11;;;;;;;8.20;3.40;;;6.60;99.90;;;;;;5071459;28;20215;-74
2022/02/02 08:10:40;;;;;;;17.80;5.78;;;6.60;99.90;;;;;;5070959;28;20227;-74
2022/02/02 08:13:12;;;;;;;15.35;5.13;;;6.60;99.90;;;;;;5071603;28;20239;-74
2022/02/02 08:15:39;;;;;;;8.85;3.92;;;6.70;99.90;;;;;;5073467;28;20579;-74
2022/02/02 08:18:07;;;;;;;7.88;3.28;;;6.60;99.90;;;;;;5074990;28;20574;-74
2022/02/02 08:20:35;;;;;;;6.93;3.97;;;6.70;99.90;;;;;;5071703;28;20287;-74
2022/02/02 08:23:02;;;;;;;10.10;4.90;;;6.70;99.90;;;;;;5071749;28;20209;-74
2022/02/02 08:25:31;;;;;;;8.18;3.55;;;6.70;99.90;;;;;;5070646;28;20228;-74
2022/02/02 08:28:02;;;;;;;10.40;3.20;;;6.70;99.90;;;;;;5070993;28;20309;-74
2022/02/02 08:30:30;;;;;;;13.02;3.20;;;6.70;99.90;;;;;;5070964;28;20236;-74
2022/02/02 08:33:00;;;;;;;7.43;3.25;;;6.70;99.90;;;;;;5071136;28;20207;-74
2022/02/02 08:35:31;;;;;;;13.88;4.47;;;6.80;99.90;;;;;;5071024;28;20224;-74
2022/02/02 08:38:05;;;;;;;10.52;3.60;;;6.80;99.90;;;;;;5070688;28;20663;-74
2022/02/02 08:40:36;;;;;;;7.85;3.80;;;6.70;99.90;;;;;;5070749;28;20192;-74
2022/02/02 08:43:09;;;;;;;6.60;3.45;;;6.70;99.90;;;;;;5070759;28;20622;-74
2022/02/02 08:45:38;;;;;;;9.20;4.10;;;6.60;99.90;;;;;;5070407;28;20224;-74
2022/02/02 08:48:09;;;;;;;12.27;3.40;;;6.60;99.90;;;;;;5071309;28;20211;-74
2022/02/02 08:50:47;;;;;;;10.00;3.13;;;6.60;99.90;;;;;;5070487;28;20220;-74
2022/02/02 08:53:29;;;;;;;10.98;3.80;;;6.70;99.90;;;;;;5069963;28;20246;-74
2022/02/02 08:56:09;;;;;;;8.23;3.20;;;6.70;99.90;;;;;;5070035;28;20231;-73
2022/02/02 08:58:38;;;;;;;7.63;3.97;;;6.70;99.90;;;;;;5069752;28;20204;-73
2022/02/02 09:01:10;;;;;;;10.18;3.80;;;6.80;99.90;;;;;;5069762;28;20226;-73
2022/02/02 09:06:22;;;;;;;9.40;3.25;;;6.90;99.90;;;;;;5069539;28;20219;-73
2022/02/02 09:08:51;;;;;;;13.30;3.65;;;7.00;99.90;;;;;;5069965;28;20599;-73
2022/02/02 09:25:27;;;;;;;10.95;3.55;;;7.30;99.90;;;;;;5120354;27;20550;-74
2022/02/02 09:36:16;;;;;;;11.27;3.63;;;7.40;99.90;;;;;;5105300;28;20387;-74
2022/02/02 09:38:42;;;;;;;12.43;4.85;;;7.30;99.90;;;;;;5105540;28;20203;-73
2022/02/02 09:44:03;;;;;;;12.13;3.88;;;7.30;99.90;;;;;;5106859;28;20215;-74
2022/02/02 09:46:35;;;;;;;13.77;4.53;;;7.30;99.90;;;;;;5107447;28;20227;-74
2022/02/02 09:49:06;;;;;;;13.07;4.25;;;7.20;99.90;;;;;;5107746;28;20199;-73
2022/02/02 09:51:40;;;;;;;8.05;3.40;;;7.10;99.90;;;;;;5107903;28;20203;-74
2022/02/02 09:54:13;;;;;;;11.40;4.53;;;7.10;99.90;;;;;;5106962;28;20198;-73
2022/02/02 10:00:11;;;;;;;10.68;3.75;;;7.10;99.90;;;;;;5086220;28;20681;-74
2022/02/02 10:05:34;;;;;;;9.00;3.72;;;7.30;99.90;;;;;;5079363;28;20229;-74
2022/02/02 10:11:19;;;;;;;12.85;3.88;;;7.40;99.90;;;;;;5105541;28;20206;-72
2022/02/02 10:14:04;;;;;;;12.18;3.80;;;7.40;99.90;;;;;;5105359;28;20670;-74
2022/02/02 10:16:43;;;;;;;17.27;4.30;;;7.40;99.90;;;;;;5106179;28;20235;-74
2022/02/02 10:19:14;;;;;;;9.88;4.10;;;7.30;99.90;;;;;;5105939;28;20218;-73
2022/02/02 10:21:41;;;;;;;7.10;3.05;;;7.10;99.90;;;;;;5105904;28;20294;-72
2022/02/02 10:24:08;;;;;;;4.25;2.90;;;6.90;99.90;;;;;;5104357;28;20227;-73
2022/02/02 10:26:44;;;;;;;4.53;2.47;;;6.80;99.90;;;;;;5105889;28;20223;-73
2022/02/02 10:29:15;;;;;;;6.85;3.25;;;6.70;99.90;;;;;;5105417;28;20229;-74
2022/02/02 10:31:44;;;;;;;7.78;3.05;;;6.60;99.90;;;;;;5105888;28;20199;-74
2022/02/02 10:34:13;;;;;;;7.05;4.05;;;6.60;99.90;;;;;;5104916;28;20202;-74
2022/02/02 10:36:40;;;;;;;9.95;4.18;;;6.60;99.90;;;;;;5091905;28;20231;-73
2022/02/02 10:39:11;;;;;;;13.27;4.95;;;6.60;99.90;;;;;;5092115;28;20337;-74
2022/02/02 10:41:46;;;;;;;11.73;4.10;;;6.70;99.90;;;;;;5092134;28;20210;-73
2022/02/02 10:44:21;;;;;;;11.73;4.07;;;6.80;99.90;;;;;;5091121;28;20641;-72
2022/02/02 10:46:57;;;;;;;13.82;3.60;;;7.30;99.90;;;;;;5092099;28;20221;-73
2022/02/02 10:49:31;;;;;;;7.97;3.60;;;8.10;99.90;;;;;;5091647;28;20203;-73
2022/02/02 10:52:05;;;;;;;11.68;3.42;;;10.10;99.90;;;;;;5092452;28;20226;-74
2022/02/02 10:54:39;;;;;;;12.60;3.67;;;12.60;99.90;;;;;;5091743;28;20225;-74
2022/02/02 10:57:15;;;;;;;9.82;3.50;;;14.50;99.90;;;;;;5091695;28;20215;-74
2022/02/02 11:08:02;;;;;;;8.25;3.70;;;12.00;99.90;;;;;;5091117;28;20204;-74
2022/02/02 11:10:32;;;;;;;9.93;3.90;;;11.00;99.90;;;;;;5091703;28;20215;-74
2022/02/02 11:13:00;;;;;;;6.70;2.85;;;10.30;99.90;;;;;;5091143;28;20207;-74
2022/02/02 11:15:36;;;;;;;10.30;3.53;;;9.80;99.90;;;;;;5091107;28;20263;-73
2022/02/02 11:18:10;;;;;;;12.15;3.97;;;9.80;99.90;;;;;;5092256;28;20195;-74
2022/02/02 11:20:38;;;;;;;9.65;3.80;;;9.80;99.90;;;;;;5091333;28;20211;-73
2022/02/02 11:23:06;;;;;;;9.35;3.70;;;9.80;99.90;;;;;;5091188;28;20666;-73
2022/02/02 11:25:38;;;;;;;11.02;4.25;;;9.60;99.90;;;;;;5091240;28;20262;-74
2022/02/02 11:28:21;;;;;;;7.68;3.53;;;9.70;99.90;;;;;;5091277;28;20204;-74
2022/02/02 11:30:49;;;;;;;7.03;2.88;;;9.70;99.90;;;;;;5091794;28;20210;-74
2022/02/02 11:33:24;;;;;;;9.35;4.28;;;9.50;99.90;;;;;;5090772;28;20210;-74
2022/02/02 11:35:55;;;;;;;7.57;3.22;;;9.80;99.90;;;;;;5092173;28;20223;-74
2022/02/02 11:38:41;;;;;;;8.15;3.55;;;11.20;99.90;;;;;;5091090;28;20199;-73
2022/02/02 11:41:34;;;;;;;9.70;3.83;;;13.50;99.90;;;;;;5092170;28;20199;-73
2022/02/02 11:44:11;;;;;;;8.38;3.20;;;13.80;99.90;;;;;;5091616;28;20230;-74
2022/02/02 11:47:07;;;;;;;9.27;3.40;;;13.00;99.90;;;;;;5091409;28;20219;-73
2022/02/02 11:49:48;;;;;;;11.27;3.40;;;11.90;99.90;;;;;;5091419;28;20202;-73
2022/02/02 11:52:34;;;;;;;8.45;3.35;;;12.10;99.90;;;;;;5090574;28;20196;-73
2022/02/02 11:55:01;;;;;;;8.02;3.47;;;12.20;99.90;;;;;;5092026;28;20220;-74
2022/02/02 11:57:34;;;;;;;13.57;4.15;;;12.20;99.90;;;;;;5091551;28;20207;-73
2022/02/02 12:00:14;;;;;;;7.88;3.28;;;12.90;99.90;;;;;;5092269;28;20227;-73
2022/02/02 12:03:14;;;;;;;7.57;3.60;;;13.80;99.90;;;;;;5091113;28;20221;-73
2022/02/02 12:05:56;;;;;;;8.85;3.40;;;14.00;99.90;;;;;;5091854;28;20889;-73
2022/02/02 12:08:38;;;;;;;10.57;3.08;;;13.00;99.90;;;;;;5091893;28;20313;-73
2022/02/02 12:11:27;;;;;;;6.03;2.78;;;12.00;99.90;;;;;;5088651;28;20199;-73
2022/02/02 12:27:59;;;;;;;7.60;2.97;;;11.30;99.90;;;;;;5090290;28;20199;-73
2022/02/02 12:44:39;;;;;;;7.85;2.85;;;12.00;99.90;;;;;;5084650;28;20264;-74
2022/02/02 12:47:10;;;;;;;9.90;3.45;;;11.00;99.90;;;;;;5050133;28;20235;-74
2022/02/02 12:49:46;;;;;;;11.18;3.92;;;10.90;99.90;;;;;;5049534;28;20201;-73
2022/02/02 12:58:10;;;;;;;8.27;3.63;;;13.00;99.90;;;;;;5048429;28;20218;-73
2022/02/02 13:00:40;;;;;;;9.27;3.60;;;13.80;99.90;;;;;;5055349;28;20224;-74
2022/02/02 13:03:08;;;;;;;6.60;2.85;;;14.40;99.90;;;;;;5068932;28;20211;-72
2022/02/02 13:05:36;;;;;;;7.78;2.70;;;14.10;99.90;;;;;;5069240;28;20220;-73
2022/02/02 13:08:06;;;;;;;6.20;3.00;;;13.30;99.90;;;;;;5069697;28;20209;-72
2022/02/02 13:10:34;;;;;;;5.57;3.10;;;12.50;99.90;;;;;;5069595;28;20583;-73
2022/02/02 13:13:06;;;;;;;5.47;3.45;;;11.50;99.90;;;;;;5068398;28;20212;-73
2022/02/02 13:15:38;;;;;;;6.28;3.30;;;10.80;99.90;;;;;;5068829;28;20532;-73
2022/02/02 13:18:13;;;;;;;9.02;3.47;;;10.20;99.90;;;;;;5068750;28;20668;-73
2022/02/02 13:20:52;;;;;;;8.13;4.10;;;9.70;99.90;;;;;;5054636;28;20231;-73
2022/02/02 13:23:27;;;;;;;7.10;3.08;;;9.40;99.90;;;;;;5048233;28;20299;-73
2022/02/02 13:25:57;;;;;;;5.10;2.85;;;9.30;99.90;;;;;;5047999;28;20696;-73
2022/02/02 13:28:46;;;;;;;9.52;3.45;;;9.10;99.90;;;;;;5060616;28;20231;-73
2022/02/02 13:31:39;;;;;;;8.73;3.10;;;9.10;99.90;;;;;;5069205;28;20303;-72
2022/02/02 13:34:11;;;;;;;8.68;3.15;;;9.00;99.90;;;;;;5068066;28;20201;-73
2022/02/02 13:42:51;;;;;;;9.20;3.20;;;8.40;99.90;;;;;;5036741;28;20313;-74
2022/02/02 13:45:46;;;;;;;4.80;2.47;;;8.20;99.90;;;;;;5067299;28;20711;-74
2022/02/02 13:48:47;;;;;;;3.03;2.15;;;8.00;99.90;;;;;;5069058;28;20689;-74
2022/02/02 13:54:35;;;;;;;3.15;2.20;;;7.60;99.90;;;;;;5048147;28;20197;-75
2022/02/02 14:08:57;;;;;;;2.30;1.90;;;7.80;99.90;;;;;;5069029;28;20735;-74
2022/02/02 14:33:05;;;;;;;5.78;3.42;;;7.60;99.90;;;;;;5051797;28;20215;-73
2022/02/02 14:35:33;;;;;;;3.47;2.25;;;7.70;99.90;;;;;;5051635;28;20236;-74
2022/02/02 14:38:00;;;;;;;8.80;3.85;;;7.80;99.90;;;;;;5051974;28;20197;-74
2022/02/02 14:40:34;;;;;;;7.63;3.55;;;7.60;99.90;;;;;;5052375;28;20201;-74
2022/02/02 14:43:04;;;;;;;6.70;3.67;;;7.60;99.90;;;;;;5051154;28;20315;-74
2022/02/02 14:45:35;;;;;;;10.07;3.30;;;7.50;99.90;;;;;;5052205;28;20225;-73
2022/02/02 14:48:08;;;;;;;8.25;4.00;;;7.50;99.90;;;;;;5051351;28;20760;-72
2022/02/02 14:50:48;;;;;;;8.65;3.45;;;7.60;99.90;;;;;;5051741;28;20296;-73
2022/02/02 14:53:23;;;;;;;10.32;3.28;;;7.60;99.90;;;;;;5051445;28;20201;-73
2022/02/02 14:56:23;;;;;;;7.28;3.53;;;7.60;99.90;;;;;;5050925;28;20247;-72
2022/02/02 15:16:42;;;;;;;9.07;3.40;;;7.70;99.90;;;;;;5051653;28;20195;-72
2022/02/02 15:29:19;;;;;;;7.03;2.80;;;7.50;99.90;;;;;;5071077;28;20254;-73
2022/02/02 15:31:47;;;;;;;7.22;2.53;;;7.50;99.90;;;;;;5070978;28;20207;-72
2022/02/02 15:34:21;;;;;;;5.60;2.67;;;7.50;99.90;;;;;;5070006;28;20200;-73
2022/02/02 15:37:18;;;;;;;7.13;2.50;;;7.40;99.90;;;;;;5061002;28;20299;-74
2022/02/02 15:39:54;;;;;;;3.10;2.20;;;7.30;99.90;;;;;;5051927;28;20208;-72
2022/02/02 15:42:34;;;;;;;8.38;2.53;;;7.30;99.90;;;;;;5050931;28;20259;-73
2022/02/02 15:56:39;;;;;;;3.40;2.17;;;7.20;99.90;;;;;;5051675;28;20266;-71
2022/02/02 15:58:50;;;;;;;3.80;2.38;;;7.10;99.90;;;;;;5050812;28;20292;-72
2022/02/02 16:04:13;;;;;;;5.55;2.45;;;7.10;99.90;;;;;;5014668;28;20192;-72
2022/02/02 16:06:41;;;;;;;7.68;2.50;;;7.00;99.90;;;;;;5050774;28;20220;-73
2022/02/02 16:09:22;;;;;;;4.75;2.65;;;7.00;99.90;;;;;;5051397;28;20212;-73
2022/02/02 16:12:04;;;;;;;5.13;2.88;;;7.00;99.90;;;;;;5066813;28;20208;-72
2022/02/02 16:14:34;;;;;;;4.88;3.10;;;7.00;99.90;;;;;;5069011;28;20200;-72
2022/02/02 16:17:15;;;;;;;3.97;2.85;;;6.90;99.90;;;;;;5050686;28;20201;-73
2022/02/02 16:24:43;;;;;;;4.82;2.60;;;6.90;99.90;;;;;;5050645;28;20729;-72
2022/02/02 16:25:35;;;;;;;2.55;1.98;;;6.90;99.90;;;;;;5050324;28;20324;-72
2022/02/02 16:36:18;;;;;;;3.58;2.42;;;6.90;99.90;;;;;;5018688;28;20281;-72
2022/02/02 16:38:57;;;;;;;5.78;2.53;;;6.90;99.90;;;;;;5050170;28;20205;-73
2022/02/02 16:44:08;;;;;;;4.53;2.55;;;6.90;99.90;;;;;;5049642;28;20196;-72
2022/02/02 16:46:35;;;;;;;3.47;2.20;;;7.00;99.90;;;;;;5049857;28;20229;-73
2022/02/02 16:49:02;;;;;;;4.70;2.70;;;6.90;99.90;;;;;;5050090;28;20210;-72
2022/02/02 16:51:29;;;;;;;3.25;2.30;;;6.90;99.90;;;;;;5050146;28;20242;-72
2022/02/02 16:54:00;;;;;;;5.07;2.30;;;6.90;99.90;;;;;;5062699;28;20204;-73
2022/02/02 16:56:38;;;;;;;2.72;2.28;;;7.00;99.90;;;;;;5069861;28;20227;-72
2022/02/02 17:32:14;;;;;;;5.07;2.60;;;6.60;99.90;;;;;;5069972;28;20215;-72
2022/02/02 17:34:46;;;;;;;4.18;2.63;;;6.60;99.90;;;;;;5070207;28;20236;-73
2022/02/02 17:37:33;;;;;;;4.15;2.55;;;6.50;99.90;;;;;;5069677;28;20300;-72
2022/02/02 17:40:05;;;;;;;5.07;2.80;;;6.40;99.90;;;;;;5067460;28;20207;-72
2022/02/02 18:14:09;;;;;;;2.78;2.33;;;5.90;99.90;;;;;;5070556;28;20789;-72
2022/02/02 18:18:51;;;;;;;3.55;2.60;;;5.70;99.90;;;;;;5071004;28;20203;-73
2022/02/02 18:21:20;;;;;;;5.70;3.72;;;5.60;99.90;;;;;;5070837;28;20208;-71
2022/02/02 18:23:52;;;;;;;7.18;3.03;;;5.60;99.90;;;;;;5069801;28;20208;-73
2022/02/02 18:26:25;;;;;;;3.97;3.15;;;5.50;99.90;;;;;;5052569;28;20231;-72
2022/02/02 18:28:58;;;;;;;4.25;2.53;;;5.50;99.90;;;;;;5050164;28;20212;-72
2022/02/02 18:31:48;;;;;;;6.50;3.38;;;5.50;99.90;;;;;;5051098;28;20207;-72
2022/02/02 18:34:25;;;;;;;4.57;3.30;;;5.40;99.90;;;;;;5049512;28;20201;-73
2022/02/02 18:37:04;;;;;;;5.50;4.07;;;5.30;99.90;;;;;;5070268;28;20256;-72
2022/02/02 18:47:44;;;;;;;4.97;3.20;;;5.00;99.90;;;;;;5067357;28;20196;-71
2022/02/02 18:50:21;;;;;;;4.47;4.05;;;4.90;99.90;;;;;;5060227;28;20236;-72
2022/02/02 18:55:55;;;;;;;4.00;3.50;;;4.70;99.90;;;;;;4967921;28;20214;-72
2022/02/02 18:58:31;;;;;;;4.95;3.42;;;4.70;99.90;;;;;;5035758;28;20215;-73
2022/02/02 19:40:05;;;;;;;6.28;4.90;;;4.40;99.90;;;;;;5084163;28;20194;-71
2022/02/02 19:54:49;;;;;;;5.45;3.63;;;4.50;99.90;;;;;;5085139;28;20231;-72
2022/02/02 19:56:51;;;;;;;4.75;4.25;;;4.50;99.90;;;;;;5085660;28;20307;-72
2022/02/02 20:02:15;;;;;;;4.00;3.60;;;4.60;99.90;;;;;;5085452;28;20194;-73
2022/02/02 20:04:50;;;;;;;4.68;4.28;;;4.60;99.90;;;;;;5085876;28;20204;-73
2022/02/02 20:10:25;;;;;;;4.93;4.30;;;4.60;99.90;;;;;;5052244;28;20291;-73
2022/02/02 20:12:52;;;;;;;7.05;4.05;;;4.60;99.90;;;;;;5064878;28;20224;-73
2022/02/02 20:15:19;;;;;;;4.40;3.78;;;4.70;99.90;;;;;;5065567;28;20228;-73
2022/02/02 20:17:46;;;;;;;5.10;4.38;;;4.70;99.90;;;;;;5065481;28;20699;-73
2022/02/02 20:20:14;;;;;;;5.85;4.30;;;4.80;99.90;;;;;;5065121;28;20683;-73
2022/02/02 20:22:43;;;;;;;4.80;3.45;;;4.80;99.90;;;;;;5064313;28;20262;-73
2022/02/02 20:25:11;;;;;;;7.95;3.70;;;4.80;99.90;;;;;;5079255;28;20224;-72
2022/02/02 20:27:38;;;;;;;4.32;3.70;;;4.70;99.90;;;;;;5084363;28;20208;-73
2022/02/02 20:30:08;;;;;;;4.15;3.63;;;4.70;99.90;;;;;;5086040;28;20196;-74
2022/02/02 20:32:35;;;;;;;4.40;3.78;;;4.70;99.90;;;;;;5084951;28;20594;-73
2022/02/02 20:35:02;;;;;;;5.85;3.95;;;4.70;99.90;;;;;;5084842;28;20251;-72
2022/02/02 20:37:29;;;;;;;5.50;4.13;;;4.70;99.90;;;;;;5085801;28;20219;-71
2022/02/02 20:39:59;;;;;;;4.63;4.03;;;4.70;99.90;;;;;;5084678;28;20208;-73
2022/02/02 20:42:35;;;;;;;7.15;4.18;;;4.70;99.90;;;;;;5085328;28;20238;-73
2022/02/02 20:45:33;;;;;;;5.75;3.70;;;4.70;99.90;;;;;;5072899;28;20723;-72
2022/02/02 21:07:48;;;;;;;5.45;4.00;;;4.90;99.90;;;;;;5028196;28;20194;-73
2022/02/02 21:10:17;;;;;;;5.00;4.32;;;4.90;99.90;;;;;;5067205;28;20243;-73
2022/02/02 21:15:32;;;;;;;4.60;4.10;;;5.00;99.90;;;;;;5069964;28;20269;-73
2022/02/02 21:18:06;;;;;;;5.53;4.75;;;5.00;99.90;;;;;;5070208;28;20586;-73